GB-0418 weather

Wishangar Farm private Airstrip
Frensham, England, United Kingdom

Public forecast

Using degrees Celsius for public forecast. Weather courtesy of forecast.io.

METAR (pilot weather report)

Closest report is RAF Odiham, 7.1 nm (13.2 km) NW. Retrieved 2018/07/19 02:50 UTC (32 minutes ago):

EGVO 190250Z AUTO 23002KT 9999 NCD 13/11 Q1019

TAF (pilot weather forecast)

Closest forecast is RAF Odiham, 7.1 nm (13.2 km) NW. Retrieved 2018/07/19 00:30 UTC (3 hours ago):

TAF TAF EGVO 190013Z 1900/1912 CNL